Airfield :







YOU CAN JOIN US ON...

 
LOGIN :

Register | Disclaimer

   EN    FR    IT 

 









Legend :    VFR   Marginal VFR   IFR   Intensive IFR   Very Intensive IFR
Visi :
Ceiling :
>= 8 km
>= 3000ft
5 to 8 km
1000 to 3000 ft
1500m to 5 km
500 to 1000 ft
800 to 1500m
200 to 500 ft
< 800m
< 200 ft
Symbols :   Thunderstorms  Fog  Heavy snow  Heavy precipitations  Wind > 20 kt







- Airport Elevation : 270 ft
- IATA code : YMX


CYMX - Montreal International Mirabel

CURRENT METAR :
  • 212100Z 22004KT 25SM FEW050 SCT260 26/15 A3011 RMK CU1CI4 CU TR SLP199 DENSITY ALT 1400FT

EXPIRED METARs :
  • 212000Z 22003KT 180V270 25SM FEW040 FEW260 26/16 A3013 RMK CU1CI1 SLP204 DENSITY ALT 1400FT
  • 211900Z 16004KT 130V250 25SM FEW035 FEW280 26/16 A3013 RMK SC1CI1 SLP206 DENSITY ALT 1400FT

TAF TAF CYMX
Valid from the 21 at 18:00 until the 22 at 18:00 UTC


211738Z 2118/2218 19005KT P6SM FEW040 FEW260
BECMG 2122/2124 VRB03KT
FM220900 VRB03KT P6SM FEW050
PROB30 2209/2213 1/2SM FG
FM221300 23006KT P6SM FEW020 FEW050
FM221600 23010G20KT P6SM FEW030 BKN120 RMK NXT FCST BY 220000Z
No reported NOTAMs for that airfield.



MET'MAP, your aeronautical weather chart ! - Copyright ORBIFLY December 2007 - Disclaimer

ORBIFLY MET'MAP TEAM :

Programming & Development : Alexandra Zaïnal
Concept & Development : Baudouin d'Aumeries
Co-Development & Prog : Marc-Olivier Méhu
Technical & hardware support : Manuel Goepfert

Contact : metmap@orbifly.com




SOURCES & CREDITS :

   NOAA